createdAt,value
2018-08-17T00:00:48.128Z,16.23
2018-08-17T00:03:15.752Z,17.47
2018-08-17T00:05:43.405Z,16.17
2018-08-17T00:08:11.075Z,17.10
2018-08-17T00:10:38.693Z,17.73
2018-08-17T00:13:11.209Z,17.83
2018-08-17T00:15:38.953Z,16.63
2018-08-17T00:18:06.673Z,17.10
2018-08-17T00:20:34.217Z,19.90
2018-08-17T00:23:02.001Z,20.07
2018-08-17T00:25:29.633Z,19.83
2018-08-17T00:27:57.245Z,19.90
2018-08-17T00:30:24.814Z,21.33
2018-08-17T00:32:55.461Z,21.13
2018-08-17T00:35:23.089Z,19.80
2018-08-17T00:37:50.652Z,17.77
2018-08-17T00:40:18.204Z,19.93
2018-08-17T00:42:45.809Z,19.00
2018-08-17T00:45:13.404Z,25.90
2018-08-17T00:47:41.005Z,20.77
2018-08-17T00:50:08.664Z,19.70
2018-08-17T00:52:36.254Z,20.27
2018-08-17T00:55:04.266Z,23.17
2018-08-17T00:57:31.902Z,20.80
2018-08-17T00:59:59.498Z,21.73
2018-08-17T01:02:27.201Z,20.53
2018-08-17T01:04:55.580Z,19.47
2018-08-17T01:07:23.629Z,24.40
2018-08-17T01:09:51.254Z,21.20
2018-08-17T01:12:18.840Z,22.10
2018-08-17T01:14:49.460Z,21.53
2018-08-17T01:17:17.073Z,21.50
2018-08-17T01:19:44.641Z,22.70
2018-08-17T01:22:12.774Z,22.90
2018-08-17T01:24:40.411Z,23.43
2018-08-17T01:27:11.030Z,28.27
2018-08-17T01:29:38.773Z,23.40
2018-08-17T01:32:06.445Z,23.63
2018-08-17T01:34:34.013Z,23.43
2018-08-17T01:37:01.577Z,27.73
2018-08-17T01:39:29.177Z,27.07
2018-08-17T01:41:59.673Z,25.80
2018-08-17T01:44:27.284Z,29.00
2018-08-17T01:46:54.920Z,30.47
2018-08-17T01:49:23.093Z,25.93
2018-08-17T01:51:50.684Z,30.73
2018-08-17T01:54:18.237Z,25.03
2018-08-17T01:56:45.915Z,28.00
2018-08-17T01:59:13.493Z,27.50
2018-08-17T02:01:41.061Z,25.07
2018-08-17T02:04:08.737Z,29.47
2018-08-17T02:06:36.323Z,28.77
2018-08-17T02:09:06.481Z,28.20
2018-08-17T02:11:34.096Z,31.10
2018-08-17T02:14:02.566Z,30.30
2018-08-17T02:16:30.269Z,31.33
2018-08-17T02:18:57.976Z,32.77
2018-08-17T02:21:25.593Z,32.53
2018-08-17T02:23:53.160Z,32.73
2018-08-17T02:26:20.853Z,29.10
2018-08-17T02:28:48.465Z,34.27
2018-08-17T02:31:16.051Z,35.57
2018-08-17T02:33:43.673Z,33.33
2018-08-17T02:36:11.245Z,35.63
2018-08-17T02:38:38.809Z,37.17
2018-08-17T02:41:06.496Z,37.77
2018-08-17T02:43:34.057Z,37.30
2018-08-17T02:46:01.648Z,35.03
2018-08-17T02:48:29.834Z,36.37
2018-08-17T02:50:57.419Z,38.53
2018-08-17T02:53:25.013Z,38.27
2018-08-17T02:55:52.565Z,37.87
2018-08-17T02:58:20.309Z,34.47
2018-08-17T03:00:47.873Z,37.80
2018-08-17T03:03:15.521Z,35.27
2018-08-17T03:05:43.181Z,34.97
2018-08-17T03:08:12.561Z,32.80
2018-08-17T03:10:40.190Z,32.63
2018-08-17T03:13:07.798Z,33.10
2018-08-17T03:15:35.408Z,30.27
2018-08-17T03:18:03.034Z,28.90
2018-08-17T03:20:30.656Z,27.30
2018-08-17T03:22:58.355Z,27.27
2018-08-17T03:25:25.970Z,25.37
2018-08-17T03:27:54.242Z,21.47
2018-08-17T03:30:21.873Z,21.87
2018-08-17T03:32:49.422Z,24.20
2018-08-17T03:35:17.862Z,23.23
2018-08-17T03:37:50.393Z,23.77
2018-08-17T03:40:18.617Z,22.47
2018-08-17T03:42:46.253Z,21.90
2018-08-17T03:45:13.993Z,20.97
2018-08-17T03:47:41.557Z,24.67
2018-08-17T03:50:10.024Z,24.20
2018-08-17T03:52:37.971Z,22.13
2018-08-17T03:55:05.737Z,21.80
2018-08-17T03:57:33.294Z,20.37
2018-08-17T04:00:00.981Z,20.03
2018-08-17T04:02:28.804Z,19.73
2018-08-17T04:04:56.568Z,19.17
2018-08-17T04:07:24.368Z,18.43
2018-08-17T04:09:51.964Z,18.30
2018-08-17T04:12:19.534Z,17.70
2018-08-17T04:14:47.121Z,17.73
2018-08-17T04:17:15.261Z,15.10
2018-08-17T04:19:44.213Z,18.70
2018-08-17T04:22:11.782Z,19.10
2018-08-17T04:24:39.376Z,16.83
2018-08-17T04:27:07.952Z,16.23
2018-08-17T04:29:36.113Z,13.57
2018-08-17T04:32:03.837Z,13.30
2018-08-17T04:34:31.609Z,12.40
2018-08-17T04:36:59.229Z,15.93
2018-08-17T04:39:26.852Z,16.43
2018-08-17T04:41:54.404Z,14.53
2018-08-17T04:44:22.793Z,13.13
2018-08-17T04:46:50.398Z,12.43
2018-08-17T04:49:18.966Z,12.33
2018-08-17T04:51:51.545Z,13.17
2018-08-17T04:54:19.180Z,13.97
2018-08-17T04:56:46.756Z,13.63
2018-08-17T04:59:14.329Z,11.00
2018-08-17T05:01:41.921Z,12.50
2018-08-17T05:04:09.472Z,12.80
2018-08-17T05:06:37.107Z,12.63
2018-08-17T05:09:06.192Z,11.97
2018-08-17T05:11:33.866Z,11.10
2018-08-17T05:14:01.538Z,12.03
2018-08-17T05:16:29.199Z,10.50
2018-08-17T05:18:57.024Z,12.23
2018-08-17T05:21:24.647Z,8.60
2018-08-17T05:23:52.281Z,9.23
2018-08-17T05:26:21.736Z,8.10
2018-08-17T05:28:49.381Z,6.67
2018-08-17T05:31:16.940Z,7.03
2018-08-17T05:33:44.578Z,6.80
2018-08-17T05:36:12.108Z,6.57
2018-08-17T05:38:40.233Z,7.27
2018-08-17T05:41:07.965Z,8.27
2018-08-17T05:43:35.542Z,13.10
2018-08-17T05:46:03.161Z,13.43
2018-08-17T05:48:31.089Z,14.00
2018-08-17T05:50:59.748Z,9.70
2018-08-17T05:53:28.312Z,12.97
2018-08-17T05:55:56.022Z,11.30
2018-08-17T05:58:25.075Z,9.40
2018-08-17T06:00:52.729Z,8.30
2018-08-17T06:03:20.369Z,9.03
2018-08-17T06:05:48.025Z,9.10
2018-08-17T06:08:15.686Z,9.37
2018-08-17T06:10:43.569Z,7.00
2018-08-17T06:13:11.149Z,9.03
2018-08-17T06:18:37.518Z,5.63
2018-08-17T06:21:05.314Z,5.90
2018-08-17T06:23:34.118Z,5.93
2018-08-17T06:26:02.213Z,6.77
2018-08-17T06:28:29.855Z,9.93
2018-08-17T06:30:57.529Z,10.70
2018-08-17T06:33:25.137Z,8.03
2018-08-17T06:35:52.693Z,8.67
2018-08-17T06:38:20.500Z,12.27
2018-08-17T06:40:48.233Z,14.83
2018-08-17T06:43:15.947Z,11.27
2018-08-17T06:45:43.662Z,7.30
2018-08-17T06:48:11.885Z,9.90
2018-08-17T06:50:39.500Z,8.40
2018-08-17T06:53:07.084Z,7.40
2018-08-17T06:55:37.675Z,12.07
2018-08-17T06:58:06.033Z,8.17
2018-08-17T07:00:33.697Z,8.43
2018-08-17T07:03:01.289Z,41.80
2018-08-17T07:05:28.852Z,10.40
2018-08-17T07:07:56.436Z,10.53
2018-08-17T07:10:24.929Z,7.93
2018-08-17T07:12:57.068Z,11.87
2018-08-17T07:15:24.791Z,6.50
2018-08-17T07:17:52.756Z,7.73
2018-08-17T07:20:20.341Z,7.67
2018-08-17T07:22:48.322Z,7.60
2018-08-17T07:25:16.062Z,6.00
2018-08-17T07:27:44.016Z,6.03
2018-08-17T07:30:11.610Z,6.30
2018-08-17T07:32:39.224Z,8.07
2018-08-17T07:35:08.344Z,6.43
2018-08-17T07:37:36.250Z,7.63
2018-08-17T07:40:05.819Z,6.80
2018-08-17T07:42:34.331Z,7.50
2018-08-17T07:45:02.041Z,8.40
2018-08-17T07:47:31.103Z,12.43
2018-08-17T07:49:59.133Z,10.87
2018-08-17T07:52:29.668Z,13.37
2018-08-17T07:55:00.344Z,13.77
2018-08-17T07:57:27.902Z,11.93
2018-08-17T07:59:55.749Z,12.07
2018-08-17T08:02:23.317Z,13.30
2018-08-17T08:04:51.037Z,7.17
2018-08-17T08:07:18.632Z,9.40
2018-08-17T08:09:46.236Z,9.70
2018-08-17T08:12:13.908Z,11.07
2018-08-17T08:14:41.570Z,11.30
2018-08-17T08:17:09.073Z,18.60
2018-08-17T08:19:37.357Z,16.80
2018-08-17T08:22:10.793Z,14.83
2018-08-17T08:24:39.010Z,14.23
2018-08-17T08:27:07.245Z,27.03
2018-08-17T08:29:34.936Z,43.87
2018-08-17T08:32:02.494Z,27.70
2018-08-17T08:34:30.156Z,14.33
2018-08-17T08:36:57.849Z,14.80
2018-08-17T08:39:25.488Z,13.30
2018-08-17T08:41:53.012Z,15.13
2018-08-17T08:44:20.561Z,14.63
2018-08-17T08:46:49.209Z,13.70
2018-08-17T08:49:16.848Z,28.37
2018-08-17T08:51:44.427Z,27.57
2018-08-17T08:54:12.017Z,26.00
2018-08-17T08:56:39.622Z,52.00
2018-08-17T08:59:07.726Z,28.90
2018-08-17T09:01:35.498Z,17.37
2018-08-17T09:04:03.094Z,13.50
2018-08-17T09:06:30.791Z,21.60
2018-08-17T09:09:00.309Z,30.87
2018-08-17T09:11:27.917Z,12.07
2018-08-17T09:13:55.777Z,10.47
2018-08-17T09:16:23.429Z,12.80
2018-08-17T09:18:51.073Z,14.13
2018-08-17T09:21:18.808Z,10.20
2018-08-17T09:23:51.485Z,14.00
2018-08-17T09:26:19.121Z,10.53
2018-08-17T09:28:46.749Z,10.10
2018-08-17T09:31:14.346Z,9.87
2018-08-17T09:33:41.909Z,12.50
2018-08-17T09:36:09.713Z,8.40
2018-08-17T09:38:37.212Z,6.70
2018-08-17T09:41:05.094Z,5.17
2018-08-17T09:43:32.654Z,4.70
2018-08-17T09:46:00.229Z,3.43
2018-08-17T09:48:27.791Z,4.90
2018-08-17T09:50:55.397Z,3.73
2018-08-17T09:53:27.037Z,4.00
2018-08-17T09:55:54.601Z,3.47
2018-08-17T09:58:22.250Z,3.40
2018-08-17T10:00:55.402Z,3.67
2018-08-17T10:03:28.646Z,2.50
2018-08-17T10:06:01.838Z,5.00
2018-08-17T10:08:35.244Z,2.70
2018-08-17T10:11:04.126Z,3.57
2018-08-17T10:13:31.709Z,5.27
2018-08-17T10:15:59.665Z,8.27
2018-08-17T10:18:35.751Z,4.60
2018-08-17T10:21:04.200Z,5.17
2018-08-17T10:23:31.658Z,4.63
2018-08-17T10:26:02.382Z,5.63
2018-08-17T10:28:29.973Z,6.87
2018-08-17T10:30:57.543Z,6.33
2018-08-17T10:33:25.176Z,7.40
2018-08-17T10:38:30.990Z,7.37
2018-08-17T10:40:58.613Z,6.40
2018-08-17T10:43:26.240Z,6.47
2018-08-17T10:45:53.800Z,6.87
2018-08-17T10:48:24.788Z,8.47
2018-08-17T10:50:56.057Z,10.33
2018-08-17T10:53:26.078Z,10.23
2018-08-17T10:55:53.639Z,13.43
2018-08-17T10:58:21.335Z,11.97
2018-08-17T11:00:54.955Z,12.73
2018-08-17T11:03:22.638Z,14.20
2018-08-17T11:05:50.308Z,13.10
2018-08-17T11:08:17.929Z,12.57
2018-08-17T11:10:47.497Z,13.07
2018-08-17T11:13:15.331Z,12.43
2018-08-17T11:15:42.906Z,10.70
2018-08-17T11:18:10.474Z,11.90
2018-08-17T11:20:38.045Z,13.37
2018-08-17T11:23:05.777Z,9.17
2018-08-17T11:25:33.325Z,8.90
2018-08-17T11:28:03.973Z,12.37
2018-08-17T11:30:33.670Z,12.70
2018-08-17T11:33:01.245Z,8.93
2018-08-17T11:35:29.256Z,8.87
2018-08-17T11:37:57.169Z,13.03
2018-08-17T11:40:24.973Z,8.90
2018-08-17T11:42:52.782Z,9.13
2018-08-17T11:45:25.929Z,8.87
2018-08-17T11:47:54.237Z,8.17
2018-08-17T11:50:23.057Z,7.93
2018-08-17T11:52:53.135Z,9.07
2018-08-17T11:55:21.509Z,7.23
2018-08-17T11:57:55.950Z,9.77
2018-08-17T12:00:23.833Z,65.87
2018-08-17T12:02:51.499Z,8.70
2018-08-17T12:05:19.217Z,11.27
2018-08-17T12:07:47.279Z,8.33
2018-08-17T12:10:14.914Z,8.27
2018-08-17T12:12:43.264Z,8.70
2018-08-17T12:15:11.622Z,8.27
2018-08-17T12:17:39.273Z,7.30
2018-08-17T12:20:07.049Z,8.23
2018-08-17T12:22:34.621Z,8.30
2018-08-17T12:25:03.218Z,8.90
2018-08-17T12:27:34.724Z,11.27
2018-08-17T12:30:04.049Z,9.80
2018-08-17T12:32:31.657Z,8.93
2018-08-17T12:34:59.432Z,9.43
2018-08-17T12:37:27.007Z,9.83
2018-08-17T12:39:54.570Z,9.53
2018-08-17T12:42:22.295Z,9.40
2018-08-17T12:44:49.889Z,9.73
2018-08-17T12:47:17.448Z,8.97
2018-08-17T12:49:45.080Z,8.90
2018-08-17T12:52:12.698Z,11.50
2018-08-17T12:54:45.053Z,56.03
2018-08-17T12:57:12.640Z,9.87
2018-08-17T12:59:40.210Z,10.03
2018-08-17T13:02:07.859Z,10.40
2018-08-17T13:04:35.462Z,9.47
2018-08-17T13:07:03.424Z,9.37
2018-08-17T13:09:31.095Z,8.80
2018-08-17T13:12:00.668Z,9.13
2018-08-17T13:14:28.730Z,8.50
2018-08-17T13:16:58.817Z,9.13
2018-08-17T13:19:26.527Z,8.53
2018-08-17T13:21:54.230Z,7.77
2018-08-17T13:24:21.835Z,8.53
2018-08-17T13:26:50.243Z,8.53
2018-08-17T13:29:32.424Z,7.80
2018-08-17T13:31:59.998Z,7.80
2018-08-17T13:34:28.163Z,8.37
2018-08-17T13:36:57.738Z,8.77
2018-08-17T13:39:26.033Z,7.47
2018-08-17T13:41:53.633Z,7.97
2018-08-17T13:44:21.193Z,7.97
2018-08-17T13:46:48.797Z,9.27
2018-08-17T13:49:16.454Z,8.17
2018-08-17T13:51:44.457Z,9.73
2018-08-17T13:54:12.049Z,6.97
2018-08-17T13:56:39.633Z,6.43
2018-08-17T13:59:07.361Z,7.30
2018-08-17T14:01:35.020Z,7.10
2018-08-17T14:04:02.645Z,5.63
2018-08-17T14:06:30.361Z,5.40
2018-08-17T14:08:57.945Z,5.00
2018-08-17T14:11:27.316Z,5.03
2018-08-17T14:13:54.899Z,6.00
2018-08-17T14:16:22.517Z,5.27
2018-08-17T14:18:50.166Z,6.53
2018-08-17T14:21:18.005Z,4.83
2018-08-17T14:23:45.913Z,5.20
2018-08-17T14:26:13.489Z,5.80
2018-08-17T14:28:41.211Z,6.87
2018-08-17T14:31:08.854Z,5.93
2018-08-17T14:33:36.828Z,6.23
2018-08-17T14:36:04.833Z,6.07
2018-08-17T14:38:34.633Z,8.27
2018-08-17T14:41:03.659Z,5.97
2018-08-17T14:43:32.027Z,5.27
2018-08-17T14:46:00.277Z,4.43
2018-08-17T14:48:28.052Z,4.43
2018-08-17T14:50:55.807Z,4.33
2018-08-17T14:53:23.821Z,4.80
2018-08-17T14:55:51.470Z,4.03
2018-08-17T14:58:19.147Z,7.00
2018-08-17T15:00:46.767Z,6.80
2018-08-17T15:03:14.368Z,9.75
2018-08-17T15:05:41.953Z,5.62
2018-08-17T15:08:09.541Z,5.78
2018-08-17T15:10:37.133Z,5.53
2018-08-17T15:13:06.581Z,4.42
2018-08-17T15:15:34.321Z,7.15
2018-08-17T15:18:01.976Z,39.50
2018-08-17T15:20:29.685Z,9.23
2018-08-17T15:22:57.377Z,5.30
2018-08-17T15:25:25.153Z,6.03
2018-08-17T15:27:53.692Z,5.33
2018-08-17T15:30:21.388Z,5.17
2018-08-17T15:32:49.002Z,4.00
2018-08-17T15:35:16.657Z,3.62
2018-08-17T15:37:44.276Z,5.08
2018-08-17T15:40:16.796Z,4.05
2018-08-17T15:42:44.357Z,3.05
2018-08-17T15:45:12.040Z,5.17
2018-08-17T15:47:39.653Z,4.35
2018-08-17T15:50:12.077Z,4.22
2018-08-17T15:52:39.920Z,4.25
2018-08-17T15:55:07.645Z,6.10
2018-08-17T15:57:35.338Z,5.25
2018-08-17T16:00:03.322Z,6.17
2018-08-17T16:02:31.048Z,7.37
2018-08-17T16:05:02.748Z,7.75
2018-08-17T16:07:30.382Z,5.42
2018-08-17T16:09:58.572Z,3.83
2018-08-17T16:12:27.089Z,6.17
2018-08-17T16:14:54.688Z,6.12
2018-08-17T16:17:22.373Z,7.42
2018-08-17T16:19:49.962Z,7.55
2018-08-17T16:22:17.790Z,6.85
2018-08-17T16:24:46.092Z,5.83
2018-08-17T16:27:13.712Z,7.67
2018-08-17T16:29:41.333Z,6.13
2018-08-17T16:32:08.953Z,5.60
2018-08-17T16:34:37.130Z,9.83
2018-08-17T16:37:04.705Z,5.57
2018-08-17T16:39:38.770Z,4.67
2018-08-17T16:42:06.370Z,4.83
2018-08-17T16:44:33.982Z,4.97
2018-08-17T16:47:01.701Z,3.83
2018-08-17T16:49:29.383Z,9.50
2018-08-17T16:51:57.008Z,6.20
2018-08-17T16:54:24.691Z,6.70
2018-08-17T16:56:52.221Z,5.90
2018-08-17T16:59:19.773Z,4.55
2018-08-17T17:01:47.445Z,6.03
2018-08-17T17:04:15.141Z,6.03
2018-08-17T17:06:42.754Z,3.77
2018-08-17T17:09:10.500Z,9.23
2018-08-17T17:11:38.112Z,7.65
2018-08-17T17:14:05.795Z,3.92
2018-08-17T17:16:39.126Z,3.95
2018-08-17T17:19:14.239Z,5.87
2018-08-17T17:21:43.344Z,4.80
2018-08-17T17:24:12.014Z,5.90
2018-08-17T17:26:39.816Z,3.42
2018-08-17T17:29:07.525Z,5.95
2018-08-17T17:31:35.365Z,4.10
2018-08-17T17:34:03.114Z,5.05
2018-08-17T17:36:30.740Z,5.67
2018-08-17T17:38:58.296Z,3.90
2018-08-17T17:41:27.442Z,5.13
2018-08-17T17:43:55.038Z,5.57
2018-08-17T17:46:22.649Z,5.00
2018-08-17T17:48:50.245Z,16.30
2018-08-17T17:51:17.844Z,17.10
2018-08-17T17:53:45.417Z,4.57
2018-08-17T17:56:13.241Z,4.43
2018-08-17T17:58:40.796Z,5.57
2018-08-17T18:01:09.494Z,5.17
2018-08-17T18:03:37.220Z,4.97
2018-08-17T18:06:07.299Z,8.40
2018-08-17T18:08:35.005Z,5.97
2018-08-17T18:11:02.821Z,4.97
2018-08-17T18:13:31.233Z,5.33
2018-08-17T18:15:58.941Z,8.73
2018-08-17T18:18:26.572Z,4.37
2018-08-17T18:20:54.281Z,3.67
2018-08-17T18:23:21.972Z,4.37
2018-08-17T18:25:49.691Z,4.17
2018-08-17T18:28:17.403Z,5.20
2018-08-17T18:30:45.064Z,4.27
2018-08-17T18:33:12.645Z,3.80
2018-08-17T18:35:40.553Z,7.67
2018-08-17T18:38:08.293Z,4.07
2018-08-17T18:40:35.942Z,3.83
2018-08-17T18:43:07.433Z,5.47
2018-08-17T18:45:35.073Z,3.97
2018-08-17T18:48:02.721Z,4.73
2018-08-17T18:50:30.390Z,5.80
2018-08-17T18:52:58.014Z,4.37
2018-08-17T18:55:25.610Z,4.57
2018-08-17T18:57:53.213Z,3.97
2018-08-17T19:00:21.306Z,5.50
2018-08-17T19:02:48.961Z,5.63
2018-08-17T19:05:17.553Z,6.53
2018-08-17T19:07:45.658Z,4.53
2018-08-17T19:10:13.728Z,4.77
2018-08-17T19:12:45.513Z,13.90
2018-08-17T19:15:13.178Z,9.27
2018-08-17T19:17:41.441Z,12.03
2018-08-17T19:20:11.146Z,6.73
2018-08-17T19:22:41.168Z,5.50
2018-08-17T19:25:09.895Z,5.07
2018-08-17T19:27:38.344Z,6.77
2018-08-17T19:30:22.204Z,4.73
2018-08-17T19:32:52.261Z,6.80
2018-08-17T19:35:19.925Z,5.23
2018-08-17T19:37:48.004Z,4.93
2018-08-17T19:40:15.574Z,6.07
2018-08-17T19:42:43.907Z,2.83
2018-08-17T19:45:11.558Z,5.10
2018-08-17T19:47:40.741Z,5.23
2018-08-17T19:50:08.484Z,6.63
2018-08-17T19:52:36.062Z,6.37
2018-08-17T19:55:04.261Z,5.80
2018-08-17T19:57:31.829Z,6.40
2018-08-17T19:59:59.413Z,8.10
2018-08-17T20:02:26.973Z,7.27
2018-08-17T20:04:54.601Z,6.63
2018-08-17T20:07:22.269Z,5.97
2018-08-17T20:09:49.892Z,6.10
2018-08-17T20:12:17.497Z,52.77
2018-08-17T20:14:45.156Z,14.57
2018-08-17T20:17:12.721Z,7.87
2018-08-17T20:19:46.295Z,6.47
2018-08-17T20:22:16.929Z,8.50
2018-08-17T20:24:45.203Z,7.47
2018-08-17T20:27:12.780Z,7.37
2018-08-17T20:29:40.497Z,5.77
2018-08-17T20:32:08.185Z,6.20
2018-08-17T20:34:40.537Z,4.37
2018-08-17T20:37:08.453Z,5.20
2018-08-17T20:39:37.900Z,6.83
2018-08-17T20:42:05.925Z,7.93
2018-08-17T20:44:33.661Z,6.20
2018-08-17T20:47:01.267Z,9.13
2018-08-17T20:49:28.869Z,6.53
2018-08-17T20:52:02.321Z,6.67
2018-08-17T20:54:30.556Z,68.00
2018-08-17T20:56:58.661Z,40.37
2018-08-17T20:59:26.293Z,16.03
2018-08-17T21:01:54.005Z,8.63
2018-08-17T21:04:21.576Z,12.87
2018-08-17T21:06:49.452Z,8.03
2018-08-17T21:09:17.025Z,7.30
2018-08-17T21:11:47.033Z,10.33
2018-08-17T21:14:14.649Z,12.47
2018-08-17T21:16:42.338Z,7.13
2018-08-17T21:19:09.969Z,6.93
2018-08-17T21:21:37.609Z,10.20
2018-08-17T21:24:05.189Z,6.73
2018-08-17T21:26:33.068Z,6.73
2018-08-17T21:29:01.804Z,5.30
2018-08-17T21:31:29.488Z,6.50
2018-08-17T21:33:57.533Z,8.50
2018-08-17T21:36:25.122Z,6.63
2018-08-17T21:39:09.646Z,6.37
2018-08-17T21:41:38.577Z,6.07
2018-08-17T21:44:08.053Z,8.73
2018-08-17T21:46:35.656Z,6.87
2018-08-17T21:49:03.273Z,7.17
2018-08-17T21:51:33.025Z,11.73
2018-08-17T21:54:01.051Z,6.33
2018-08-17T21:56:28.605Z,7.57
2018-08-17T21:58:57.289Z,6.93
2018-08-17T22:01:24.910Z,68.33
2018-08-17T22:03:52.530Z,8.03
2018-08-17T22:06:20.121Z,7.07
2018-08-17T22:08:47.760Z,8.37
2018-08-17T22:11:35.039Z,8.13
2018-08-17T22:14:02.900Z,6.73
2018-08-17T22:16:31.265Z,8.00
2018-08-17T22:18:58.955Z,6.97
2018-08-17T22:21:27.573Z,8.33
2018-08-17T22:23:55.414Z,10.50
2018-08-17T22:26:27.101Z,8.73
2018-08-17T22:28:54.686Z,7.00
2018-08-17T22:31:34.702Z,6.10
2018-08-17T22:34:02.257Z,8.23
2018-08-17T22:36:31.214Z,5.97
2018-08-17T22:39:01.779Z,7.67
2018-08-17T22:41:33.522Z,9.00
2018-08-17T22:44:02.526Z,9.27
2018-08-17T22:46:30.239Z,11.17
2018-08-17T22:48:58.179Z,7.00
2018-08-17T22:51:28.481Z,6.70
2018-08-17T22:53:56.077Z,7.00
2018-08-17T22:56:23.776Z,8.37
2018-08-17T22:58:51.300Z,9.60
2018-08-17T23:01:20.186Z,8.33
2018-08-17T23:03:52.936Z,6.10
2018-08-17T23:06:22.679Z,7.50
2018-08-17T23:08:50.504Z,6.27
2018-08-17T23:11:32.173Z,8.40
2018-08-17T23:14:04.189Z,7.53
2018-08-17T23:16:31.749Z,7.00
2018-08-17T23:18:59.369Z,9.10
2018-08-17T23:21:28.138Z,7.83
2018-08-17T23:26:30.852Z,8.67
2018-08-17T23:28:58.776Z,9.73
2018-08-17T23:31:26.470Z,9.57
2018-08-17T23:33:54.294Z,10.57
2018-08-17T23:36:21.924Z,11.63
2018-08-17T23:38:50.726Z,10.27
2018-08-17T23:41:18.589Z,8.63
2018-08-17T23:43:46.217Z,9.43
2018-08-17T23:46:14.249Z,9.73
2018-08-17T23:48:43.051Z,9.43
2018-08-17T23:51:10.746Z,13.57
2018-08-17T23:53:39.229Z,10.57
2018-08-17T23:56:06.942Z,38.13
2018-08-17T23:58:34.524Z,21.83
